sensor_id;sensor_type;location;lat;lon;timestamp;P1;durP1;ratioP1;P2;durP2;ratioP2
26718;SDS011;14326;50.794;6.060;2023-04-24T00:05:26;13.05;;;3.28;;
26718;SDS011;14326;50.794;6.060;2023-04-24T00:11:13;13.50;;;4.22;;
26718;SDS011;14326;50.794;6.060;2023-04-24T00:14:05;14.85;;;4.30;;
26718;SDS011;14326;50.794;6.060;2023-04-24T00:16:55;12.25;;;4.22;;
26718;SDS011;14326;50.794;6.060;2023-04-24T00:19:44;13.15;;;4.10;;
26718;SDS011;14326;50.794;6.060;2023-04-24T00:22:20;14.05;;;4.10;;
26718;SDS011;14326;50.794;6.060;2023-04-24T00:24:55;16.35;;;4.63;;
26718;SDS011;14326;50.794;6.060;2023-04-24T00:27:51;13.63;;;4.70;;
26718;SDS011;14326;50.794;6.060;2023-04-24T00:30:18;12.23;;;4.63;;
26718;SDS011;14326;50.794;6.060;2023-04-24T00:32:46;15.57;;;4.70;;
26718;SDS011;14326;50.794;6.060;2023-04-24T00:35:18;15.35;;;4.85;;
26718;SDS011;14326;50.794;6.060;2023-04-24T00:37:48;17.83;;;5.30;;
26718;SDS011;14326;50.794;6.060;2023-04-24T00:40:15;15.70;;;5.03;;
26718;SDS011;14326;50.794;6.060;2023-04-24T00:53:13;16.13;;;5.50;;
26718;SDS011;14326;50.794;6.060;2023-04-24T00:56:08;18.17;;;5.57;;
26718;SDS011;14326;50.794;6.060;2023-04-24T00:58:54;18.52;;;6.43;;
26718;SDS011;14326;50.794;6.060;2023-04-24T01:10:04;21.02;;;7.45;;
26718;SDS011;14326;50.794;6.060;2023-04-24T01:12:45;17.85;;;7.63;;
26718;SDS011;14326;50.794;6.060;2023-04-24T01:15:12;23.55;;;8.43;;
26718;SDS011;14326;50.794;6.060;2023-04-24T01:17:42;20.38;;;7.90;;
26718;SDS011;14326;50.794;6.060;2023-04-24T01:20:18;20.27;;;7.93;;
26718;SDS011;14326;50.794;6.060;2023-04-24T01:22:48;21.70;;;7.78;;
26718;SDS011;14326;50.794;6.060;2023-04-24T01:25:15;19.83;;;7.68;;
26718;SDS011;14326;50.794;6.060;2023-04-24T01:27:42;18.08;;;7.35;;
26718;SDS011;14326;50.794;6.060;2023-04-24T01:30:10;19.80;;;7.43;;
26718;SDS011;14326;50.794;6.060;2023-04-24T01:32:41;18.63;;;7.10;;
26718;SDS011;14326;50.794;6.060;2023-04-24T01:35:10;19.95;;;7.57;;
26718;SDS011;14326;50.794;6.060;2023-04-24T01:37:37;18.92;;;7.32;;
26718;SDS011;14326;50.794;6.060;2023-04-24T01:40:06;21.58;;;7.15;;
26718;SDS011;14326;50.794;6.060;2023-04-24T01:42:35;21.00;;;6.78;;
26718;SDS011;14326;50.794;6.060;2023-04-24T01:45:03;20.10;;;7.30;;
26718;SDS011;14326;50.794;6.060;2023-04-24T01:47:46;20.85;;;7.07;;
26718;SDS011;14326;50.794;6.060;2023-04-24T01:50:14;19.50;;;6.55;;
26718;SDS011;14326;50.794;6.060;2023-04-24T01:52:41;18.58;;;6.90;;
26718;SDS011;14326;50.794;6.060;2023-04-24T01:55:19;23.98;;;8.07;;
26718;SDS011;14326;50.794;6.060;2023-04-24T01:58:08;20.60;;;7.90;;
26718;SDS011;14326;50.794;6.060;2023-04-24T02:00:56;22.08;;;8.27;;
26718;SDS011;14326;50.794;6.060;2023-04-24T02:03:54;21.88;;;8.15;;
26718;SDS011;14326;50.794;6.060;2023-04-24T02:06:38;22.00;;;8.10;;
26718;SDS011;14326;50.794;6.060;2023-04-24T02:09:13;24.02;;;7.95;;
26718;SDS011;14326;50.794;6.060;2023-04-24T02:11:50;20.20;;;8.35;;
26718;SDS011;14326;50.794;6.060;2023-04-24T02:14:20;21.90;;;7.78;;
26718;SDS011;14326;50.794;6.060;2023-04-24T02:17:04;22.15;;;7.82;;
26718;SDS011;14326;50.794;6.060;2023-04-24T02:19:38;25.60;;;8.07;;
26718;SDS011;14326;50.794;6.060;2023-04-24T02:22:06;19.65;;;8.43;;
26718;SDS011;14326;50.794;6.060;2023-04-24T02:24:33;21.40;;;8.05;;
26718;SDS011;14326;50.794;6.060;2023-04-24T02:27:01;21.25;;;8.00;;
26718;SDS011;14326;50.794;6.060;2023-04-24T02:29:41;24.27;;;8.00;;
26718;SDS011;14326;50.794;6.060;2023-04-24T02:32:08;20.52;;;8.18;;
26718;SDS011;14326;50.794;6.060;2023-04-24T02:34:37;20.45;;;8.18;;
26718;SDS011;14326;50.794;6.060;2023-04-24T02:37:04;24.50;;;8.98;;
26718;SDS011;14326;50.794;6.060;2023-04-24T02:39:31;22.30;;;8.45;;
26718;SDS011;14326;50.794;6.060;2023-04-24T02:41:58;24.00;;;8.73;;
26718;SDS011;14326;50.794;6.060;2023-04-24T02:44:27;20.10;;;8.65;;
26718;SDS011;14326;50.794;6.060;2023-04-24T02:46:54;21.73;;;8.48;;
26718;SDS011;14326;50.794;6.060;2023-04-24T02:49:21;23.10;;;8.30;;
26718;SDS011;14326;50.794;6.060;2023-04-24T02:51:48;22.90;;;8.65;;
26718;SDS011;14326;50.794;6.060;2023-04-24T02:54:15;20.92;;;8.82;;
26718;SDS011;14326;50.794;6.060;2023-04-24T02:56:42;24.20;;;8.70;;
26718;SDS011;14326;50.794;6.060;2023-04-24T02:59:09;25.00;;;9.05;;
26718;SDS011;14326;50.794;6.060;2023-04-24T03:01:58;20.80;;;8.32;;
26718;SDS011;14326;50.794;6.060;2023-04-24T03:04:52;21.30;;;8.77;;
26718;SDS011;14326;50.794;6.060;2023-04-24T03:07:21;25.25;;;8.93;;
26718;SDS011;14326;50.794;6.060;2023-04-24T03:10:00;22.48;;;8.93;;
26718;SDS011;14326;50.794;6.060;2023-04-24T03:12:28;23.67;;;8.70;;
26718;SDS011;14326;50.794;6.060;2023-04-24T03:14:57;24.23;;;8.68;;
26718;SDS011;14326;50.794;6.060;2023-04-24T03:17:26;20.63;;;8.75;;
26718;SDS011;14326;50.794;6.060;2023-04-24T03:19:54;20.38;;;8.07;;
26718;SDS011;14326;50.794;6.060;2023-04-24T03:22:23;20.50;;;8.07;;
26718;SDS011;14326;50.794;6.060;2023-04-24T03:27:39;21.52;;;8.57;;
26718;SDS011;14326;50.794;6.060;2023-04-24T03:30:34;21.52;;;8.02;;
26718;SDS011;14326;50.794;6.060;2023-04-24T03:36:02;19.42;;;7.50;;
26718;SDS011;14326;50.794;6.060;2023-04-24T03:41:39;18.40;;;7.10;;
26718;SDS011;14326;50.794;6.060;2023-04-24T03:44:20;22.52;;;8.13;;
26718;SDS011;14326;50.794;6.060;2023-04-24T03:46:47;21.77;;;8.80;;
26718;SDS011;14326;50.794;6.060;2023-04-24T03:49:16;23.27;;;8.63;;
26718;SDS011;14326;50.794;6.060;2023-04-24T03:51:43;26.20;;;7.72;;
26718;SDS011;14326;50.794;6.060;2023-04-24T03:54:10;19.33;;;7.68;;
26718;SDS011;14326;50.794;6.060;2023-04-24T03:56:40;21.60;;;7.80;;
26718;SDS011;14326;50.794;6.060;2023-04-24T03:59:07;25.58;;;8.10;;
26718;SDS011;14326;50.794;6.060;2023-04-24T04:01:33;21.75;;;7.72;;
26718;SDS011;14326;50.794;6.060;2023-04-24T04:04:03;22.55;;;8.95;;
26718;SDS011;14326;50.794;6.060;2023-04-24T04:06:37;25.30;;;8.40;;
26718;SDS011;14326;50.794;6.060;2023-04-24T04:09:11;21.73;;;9.07;;
26718;SDS011;14326;50.794;6.060;2023-04-24T04:11:41;22.10;;;7.97;;
26718;SDS011;14326;50.794;6.060;2023-04-24T04:14:08;20.90;;;8.65;;
26718;SDS011;14326;50.794;6.060;2023-04-24T04:16:35;25.38;;;9.38;;
26718;SDS011;14326;50.794;6.060;2023-04-24T04:19:04;22.58;;;8.93;;
26718;SDS011;14326;50.794;6.060;2023-04-24T04:21:31;21.58;;;8.52;;
26718;SDS011;14326;50.794;6.060;2023-04-24T04:24:00;21.40;;;9.50;;
26718;SDS011;14326;50.794;6.060;2023-04-24T04:26:27;23.73;;;10.35;;
26718;SDS011;14326;50.794;6.060;2023-04-24T04:28:57;26.02;;;10.77;;
26718;SDS011;14326;50.794;6.060;2023-04-24T04:31:25;25.65;;;10.25;;
26718;SDS011;14326;50.794;6.060;2023-04-24T04:33:56;25.08;;;11.32;;
26718;SDS011;14326;50.794;6.060;2023-04-24T04:36:31;23.65;;;10.30;;
26718;SDS011;14326;50.794;6.060;2023-04-24T04:39:03;23.35;;;10.13;;
26718;SDS011;14326;50.794;6.060;2023-04-24T04:41:33;22.52;;;9.68;;
26718;SDS011;14326;50.794;6.060;2023-04-24T04:44:05;23.88;;;10.38;;
26718;SDS011;14326;50.794;6.060;2023-04-24T04:46:33;25.42;;;10.73;;
26718;SDS011;14326;50.794;6.060;2023-04-24T04:49:02;25.45;;;10.02;;
26718;SDS011;14326;50.794;6.060;2023-04-24T04:51:29;22.77;;;9.75;;
26718;SDS011;14326;50.794;6.060;2023-04-24T04:53:59;24.35;;;9.95;;
26718;SDS011;14326;50.794;6.060;2023-04-24T04:56:27;21.88;;;9.23;;
26718;SDS011;14326;50.794;6.060;2023-04-24T04:58:55;24.63;;;9.85;;
26718;SDS011;14326;50.794;6.060;2023-04-24T05:01:33;24.67;;;10.13;;
26718;SDS011;14326;50.794;6.060;2023-04-24T05:04:03;22.83;;;9.38;;
26718;SDS011;14326;50.794;6.060;2023-04-24T05:06:35;21.00;;;9.18;;
26718;SDS011;14326;50.794;6.060;2023-04-24T05:09:09;21.75;;;8.25;;
26718;SDS011;14326;50.794;6.060;2023-04-24T05:11:53;20.15;;;8.35;;
26718;SDS011;14326;50.794;6.060;2023-04-24T05:14:21;20.40;;;7.63;;
26718;SDS011;14326;50.794;6.060;2023-04-24T05:16:55;21.02;;;7.38;;
26718;SDS011;14326;50.794;6.060;2023-04-24T05:19:36;19.58;;;7.35;;
26718;SDS011;14326;50.794;6.060;2023-04-24T05:22:26;22.67;;;7.05;;
26718;SDS011;14326;50.794;6.060;2023-04-24T05:25:02;17.98;;;7.35;;
26718;SDS011;14326;50.794;6.060;2023-04-24T05:27:30;19.05;;;6.88;;
26718;SDS011;14326;50.794;6.060;2023-04-24T05:29:57;17.50;;;6.90;;
26718;SDS011;14326;50.794;6.060;2023-04-24T05:35:16;17.55;;;6.68;;
26718;SDS011;14326;50.794;6.060;2023-04-24T05:37:51;20.63;;;6.70;;
26718;SDS011;14326;50.794;6.060;2023-04-24T05:40:18;20.35;;;6.85;;
26718;SDS011;14326;50.794;6.060;2023-04-24T05:42:46;20.05;;;7.68;;
26718;SDS011;14326;50.794;6.060;2023-04-24T05:45:15;18.30;;;7.18;;
26718;SDS011;14326;50.794;6.060;2023-04-24T05:47:55;17.80;;;6.00;;
26718;SDS011;14326;50.794;6.060;2023-04-24T05:50:21;11.70;;;4.00;;
26718;SDS011;14326;50.794;6.060;2023-04-24T05:52:49;12.30;;;3.92;;
26718;SDS011;14326;50.794;6.060;2023-04-24T05:55:15;14.65;;;4.70;;
26718;SDS011;14326;50.794;6.060;2023-04-24T05:57:43;13.50;;;4.70;;
26718;SDS011;14326;50.794;6.060;2023-04-24T06:00:12;16.98;;;5.93;;
26718;SDS011;14326;50.794;6.060;2023-04-24T06:02:41;17.98;;;6.78;;
26718;SDS011;14326;50.794;6.060;2023-04-24T06:05:08;16.92;;;5.97;;
26718;SDS011;14326;50.794;6.060;2023-04-24T06:07:37;17.05;;;6.28;;
26718;SDS011;14326;50.794;6.060;2023-04-24T06:10:04;21.05;;;6.53;;
26718;SDS011;14326;50.794;6.060;2023-04-24T06:12:32;18.08;;;7.50;;
26718;SDS011;14326;50.794;6.060;2023-04-24T06:15:04;17.08;;;6.22;;
26718;SDS011;14326;50.794;6.060;2023-04-24T06:17:34;17.08;;;5.75;;
26718;SDS011;14326;50.794;6.060;2023-04-24T06:20:04;15.27;;;5.75;;
26718;SDS011;14326;50.794;6.060;2023-04-24T06:22:33;17.63;;;6.10;;
26718;SDS011;14326;50.794;6.060;2023-04-24T06:25:12;15.57;;;6.32;;
26718;SDS011;14326;50.794;6.060;2023-04-24T06:27:47;16.45;;;5.93;;
26718;SDS011;14326;50.794;6.060;2023-04-24T06:33:32;15.25;;;5.03;;
26718;SDS011;14326;50.794;6.060;2023-04-24T06:36:00;16.35;;;4.95;;
26718;SDS011;14326;50.794;6.060;2023-04-24T06:38:29;15.85;;;5.47;;
26718;SDS011;14326;50.794;6.060;2023-04-24T06:40:56;13.18;;;4.13;;
26718;SDS011;14326;50.794;6.060;2023-04-24T06:43:25;12.77;;;4.57;;
26718;SDS011;14326;50.794;6.060;2023-04-24T06:45:52;15.20;;;5.15;;
26718;SDS011;14326;50.794;6.060;2023-04-24T06:48:21;11.95;;;4.45;;
26718;SDS011;14326;50.794;6.060;2023-04-24T06:50:49;12.57;;;4.43;;
26718;SDS011;14326;50.794;6.060;2023-04-24T06:53:16;14.25;;;4.30;;
26718;SDS011;14326;50.794;6.060;2023-04-24T06:55:43;13.15;;;4.50;;
26718;SDS011;14326;50.794;6.060;2023-04-24T06:58:13;14.38;;;4.88;;
26718;SDS011;14326;50.794;6.060;2023-04-24T07:00:58;14.30;;;4.57;;
26718;SDS011;14326;50.794;6.060;2023-04-24T07:03:59;14.38;;;5.15;;
26718;SDS011;14326;50.794;6.060;2023-04-24T07:06:23;13.10;;;4.55;;
26718;SDS011;14326;50.794;6.060;2023-04-24T07:09:03;16.45;;;5.25;;
26718;SDS011;14326;50.794;6.060;2023-04-24T07:11:59;15.65;;;5.35;;
26718;SDS011;14326;50.794;6.060;2023-04-24T07:14:31;16.67;;;5.13;;
26718;SDS011;14326;50.794;6.060;2023-04-24T07:16:59;15.82;;;5.13;;
26718;SDS011;14326;50.794;6.060;2023-04-24T07:19:28;15.77;;;5.40;;
26718;SDS011;14326;50.794;6.060;2023-04-24T07:25:28;15.55;;;5.38;;
26718;SDS011;14326;50.794;6.060;2023-04-24T07:28:12;14.63;;;5.35;;
26718;SDS011;14326;50.794;6.060;2023-04-24T07:31:13;16.98;;;5.90;;
26718;SDS011;14326;50.794;6.060;2023-04-24T07:34:37;11.10;;;4.15;;
26718;SDS011;14326;50.794;6.060;2023-04-24T07:37:06;17.40;;;5.22;;
26718;SDS011;14326;50.794;6.060;2023-04-24T07:39:54;13.23;;;4.65;;
26718;SDS011;14326;50.794;6.060;2023-04-24T07:42:21;15.57;;;5.47;;
26718;SDS011;14326;50.794;6.060;2023-04-24T07:44:55;17.52;;;5.72;;
26718;SDS011;14326;50.794;6.060;2023-04-24T07:47:24;19.08;;;6.28;;
26718;SDS011;14326;50.794;6.060;2023-04-24T07:50:02;17.45;;;6.43;;
26718;SDS011;14326;50.794;6.060;2023-04-24T07:52:37;17.92;;;6.28;;
26718;SDS011;14326;50.794;6.060;2023-04-24T07:58:13;21.85;;;7.70;;
26718;SDS011;14326;50.794;6.060;2023-04-24T08:00:41;20.77;;;7.15;;
26718;SDS011;14326;50.794;6.060;2023-04-24T08:03:11;22.92;;;7.93;;
26718;SDS011;14326;50.794;6.060;2023-04-24T08:05:51;19.50;;;7.45;;
26718;SDS011;14326;50.794;6.060;2023-04-24T08:08:23;22.00;;;8.35;;
26718;SDS011;14326;50.794;6.060;2023-04-24T08:10:59;22.42;;;8.55;;
26718;SDS011;14326;50.794;6.060;2023-04-24T08:13:26;21.48;;;7.60;;
26718;SDS011;14326;50.794;6.060;2023-04-24T08:15:52;19.80;;;8.13;;
26718;SDS011;14326;50.794;6.060;2023-04-24T08:18:19;22.73;;;8.02;;
26718;SDS011;14326;50.794;6.060;2023-04-24T08:20:46;21.83;;;7.28;;
26718;SDS011;14326;50.794;6.060;2023-04-24T08:23:12;21.67;;;7.80;;
26718;SDS011;14326;50.794;6.060;2023-04-24T08:25:39;19.83;;;7.22;;
26718;SDS011;14326;50.794;6.060;2023-04-24T08:28:10;23.58;;;7.40;;
26718;SDS011;14326;50.794;6.060;2023-04-24T08:30:54;21.48;;;7.78;;
26718;SDS011;14326;50.794;6.060;2023-04-24T08:33:20;19.65;;;7.10;;
26718;SDS011;14326;50.794;6.060;2023-04-24T08:35:47;18.65;;;7.07;;
26718;SDS011;14326;50.794;6.060;2023-04-24T08:38:15;20.70;;;7.72;;
26718;SDS011;14326;50.794;6.060;2023-04-24T08:40:52;19.73;;;7.18;;
26718;SDS011;14326;50.794;6.060;2023-04-24T08:43:29;17.63;;;6.68;;
26718;SDS011;14326;50.794;6.060;2023-04-24T08:46:11;18.88;;;6.40;;
26718;SDS011;14326;50.794;6.060;2023-04-24T08:48:41;18.35;;;6.55;;
26718;SDS011;14326;50.794;6.060;2023-04-24T08:51:08;21.02;;;7.13;;
26718;SDS011;14326;50.794;6.060;2023-04-24T08:53:35;18.48;;;7.50;;
26718;SDS011;14326;50.794;6.060;2023-04-24T08:56:03;23.55;;;9.20;;
26718;SDS011;14326;50.794;6.060;2023-04-24T08:58:34;22.63;;;8.95;;
26718;SDS011;14326;50.794;6.060;2023-04-24T09:01:05;25.80;;;10.68;;
26718;SDS011;14326;50.794;6.060;2023-04-24T09:03:33;22.55;;;9.40;;
26718;SDS011;14326;50.794;6.060;2023-04-24T09:06:00;24.00;;;9.77;;
26718;SDS011;14326;50.794;6.060;2023-04-24T09:08:28;28.58;;;10.63;;
26718;SDS011;14326;50.794;6.060;2023-04-24T09:10:56;24.55;;;10.25;;
26718;SDS011;14326;50.794;6.060;2023-04-24T09:13:28;24.98;;;10.00;;
26718;SDS011;14326;50.794;6.060;2023-04-24T09:15:56;26.33;;;10.60;;
26718;SDS011;14326;50.794;6.060;2023-04-24T09:18:25;23.88;;;10.45;;
26718;SDS011;14326;50.794;6.060;2023-04-24T09:20:58;24.25;;;10.00;;
26718;SDS011;14326;50.794;6.060;2023-04-24T09:23:27;23.80;;;9.43;;
26718;SDS011;14326;50.794;6.060;2023-04-24T09:25:54;28.88;;;10.60;;
26718;SDS011;14326;50.794;6.060;2023-04-24T09:28:25;29.60;;;10.18;;
26718;SDS011;14326;50.794;6.060;2023-04-24T09:31:03;28.23;;;10.75;;
26718;SDS011;14326;50.794;6.060;2023-04-24T09:33:31;24.58;;;10.02;;
26718;SDS011;14326;50.794;6.060;2023-04-24T09:35:58;29.58;;;10.88;;
26718;SDS011;14326;50.794;6.060;2023-04-24T09:38:36;27.42;;;10.23;;
26718;SDS011;14326;50.794;6.060;2023-04-24T09:41:15;27.33;;;9.35;;
26718;SDS011;14326;50.794;6.060;2023-04-24T09:44:10;25.10;;;9.63;;
26718;SDS011;14326;50.794;6.060;2023-04-24T09:49:46;22.70;;;8.23;;
26718;SDS011;14326;50.794;6.060;2023-04-24T09:52:21;24.65;;;8.55;;
26718;SDS011;14326;50.794;6.060;2023-04-24T09:54:53;27.02;;;8.70;;
26718;SDS011;14326;50.794;6.060;2023-04-24T09:57:21;25.75;;;8.07;;
26718;SDS011;14326;50.794;6.060;2023-04-24T09:59:50;25.63;;;7.35;;
26718;SDS011;14326;50.794;6.060;2023-04-24T10:02:21;29.42;;;7.80;;
26718;SDS011;14326;50.794;6.060;2023-04-24T10:04:54;21.10;;;6.78;;
26718;SDS011;14326;50.794;6.060;2023-04-24T10:07:21;20.60;;;7.10;;
26718;SDS011;14326;50.794;6.060;2023-04-24T10:09:48;22.25;;;6.40;;
26718;SDS011;14326;50.794;6.060;2023-04-24T10:12:16;20.20;;;6.70;;
26718;SDS011;14326;50.794;6.060;2023-04-24T10:14:45;18.92;;;5.95;;
26718;SDS011;14326;50.794;6.060;2023-04-24T10:17:12;21.33;;;6.10;;
26718;SDS011;14326;50.794;6.060;2023-04-24T10:19:43;18.98;;;5.38;;
26718;SDS011;14326;50.794;6.060;2023-04-24T10:22:12;24.77;;;5.63;;
26718;SDS011;14326;50.794;6.060;2023-04-24T10:24:42;18.85;;;5.28;;
26718;SDS011;14326;50.794;6.060;2023-04-24T10:27:10;23.53;;;5.97;;
26718;SDS011;14326;50.794;6.060;2023-04-24T10:29:42;17.90;;;5.32;;
26718;SDS011;14326;50.794;6.060;2023-04-24T10:32:12;16.25;;;4.70;;
26718;SDS011;14326;50.794;6.060;2023-04-24T10:35:02;23.33;;;6.20;;
26718;SDS011;14326;50.794;6.060;2023-04-24T10:37:50;19.13;;;6.03;;
26718;SDS011;14326;50.794;6.060;2023-04-24T10:40:25;26.30;;;6.50;;
26718;SDS011;14326;50.794;6.060;2023-04-24T10:43:02;23.13;;;6.63;;
26718;SDS011;14326;50.794;6.060;2023-04-24T10:45:40;21.27;;;6.20;;
26718;SDS011;14326;50.794;6.060;2023-04-24T10:48:42;19.42;;;6.05;;
26718;SDS011;14326;50.794;6.060;2023-04-24T10:51:15;20.13;;;6.57;;
26718;SDS011;14326;50.794;6.060;2023-04-24T10:54:04;22.45;;;7.40;;
26718;SDS011;14326;50.794;6.060;2023-04-24T11:03:03;23.35;;;8.02;;
26718;SDS011;14326;50.794;6.060;2023-04-24T11:05:49;26.17;;;9.02;;
26718;SDS011;14326;50.794;6.060;2023-04-24T11:08:39;26.65;;;8.45;;
26718;SDS011;14326;50.794;6.060;2023-04-24T11:11:25;24.83;;;9.35;;
26718;SDS011;14326;50.794;6.060;2023-04-24T11:16:52;23.75;;;8.70;;
26718;SDS011;14326;50.794;6.060;2023-04-24T11:24:50;26.55;;;7.32;;
26718;SDS011;14326;50.794;6.060;2023-04-24T11:32:25;21.40;;;6.38;;
26718;SDS011;14326;50.794;6.060;2023-04-24T11:34:54;19.65;;;5.63;;
26718;SDS011;14326;50.794;6.060;2023-04-24T11:37:33;19.58;;;5.32;;
26718;SDS011;14326;50.794;6.060;2023-04-24T11:40:08;18.83;;;5.88;;
26718;SDS011;14326;50.794;6.060;2023-04-24T11:42:37;19.52;;;5.28;;
26718;SDS011;14326;50.794;6.060;2023-04-24T11:45:09;23.35;;;6.72;;
26718;SDS011;14326;50.794;6.060;2023-04-24T11:47:36;18.35;;;6.07;;
26718;SDS011;14326;50.794;6.060;2023-04-24T11:50:04;21.33;;;6.10;;
26718;SDS011;14326;50.794;6.060;2023-04-24T11:52:33;18.92;;;5.90;;
26718;SDS011;14326;50.794;6.060;2023-04-24T11:55:03;19.48;;;5.72;;
26718;SDS011;14326;50.794;6.060;2023-04-24T11:57:55;17.65;;;5.72;;
26718;SDS011;14326;50.794;6.060;2023-04-24T12:01:01;17.45;;;5.90;;
26718;SDS011;14326;50.794;6.060;2023-04-24T12:06:27;19.83;;;5.78;;
26718;SDS011;14326;50.794;6.060;2023-04-24T12:08:53;21.73;;;5.80;;
26718;SDS011;14326;50.794;6.060;2023-04-24T12:11:24;24.23;;;6.85;;
26718;SDS011;14326;50.794;6.060;2023-04-24T12:16:26;22.35;;;5.60;;
26718;SDS011;14326;50.794;6.060;2023-04-24T12:19:09;20.35;;;6.03;;
26718;SDS011;14326;50.794;6.060;2023-04-24T12:21:36;18.55;;;5.88;;
26718;SDS011;14326;50.794;6.060;2023-04-24T12:24:05;21.90;;;6.40;;
26718;SDS011;14326;50.794;6.060;2023-04-24T12:26:34;15.23;;;5.25;;
26718;SDS011;14326;50.794;6.060;2023-04-24T12:29:01;21.30;;;5.88;;
26718;SDS011;14326;50.794;6.060;2023-04-24T12:31:31;21.95;;;5.60;;
26718;SDS011;14326;50.794;6.060;2023-04-24T12:34:00;22.50;;;6.35;;
26718;SDS011;14326;50.794;6.060;2023-04-24T12:36:32;14.73;;;6.23;;
26718;SDS011;14326;50.794;6.060;2023-04-24T12:39:01;17.25;;;5.57;;
26718;SDS011;14326;50.794;6.060;2023-04-24T12:41:50;17.83;;;6.43;;
26718;SDS011;14326;50.794;6.060;2023-04-24T12:45:22;21.52;;;5.30;;
26718;SDS011;14326;50.794;6.060;2023-04-24T12:48:13;21.58;;;5.53;;
26718;SDS011;14326;50.794;6.060;2023-04-24T12:53:27;20.75;;;5.75;;
26718;SDS011;14326;50.794;6.060;2023-04-24T12:56:20;21.38;;;5.40;;
26718;SDS011;14326;50.794;6.060;2023-04-24T12:58:53;19.00;;;5.68;;
26718;SDS011;14326;50.794;6.060;2023-04-24T13:01:35;17.17;;;4.93;;
26718;SDS011;14326;50.794;6.060;2023-04-24T13:07:14;16.50;;;4.68;;
26718;SDS011;14326;50.794;6.060;2023-04-24T13:09:42;19.17;;;5.32;;
26718;SDS011;14326;50.794;6.060;2023-04-24T13:12:10;19.65;;;5.85;;
26718;SDS011;14326;50.794;6.060;2023-04-24T13:14:38;20.02;;;5.43;;
26718;SDS011;14326;50.794;6.060;2023-04-24T13:17:11;16.85;;;4.85;;
26718;SDS011;14326;50.794;6.060;2023-04-24T13:19:49;16.90;;;5.40;;
26718;SDS011;14326;50.794;6.060;2023-04-24T13:22:19;18.10;;;4.90;;
26718;SDS011;14326;50.794;6.060;2023-04-24T13:24:55;16.25;;;4.93;;
26718;SDS011;14326;50.794;6.060;2023-04-24T13:27:27;19.38;;;5.38;;
26718;SDS011;14326;50.794;6.060;2023-04-24T13:30:06;17.65;;;5.38;;
26718;SDS011;14326;50.794;6.060;2023-04-24T13:32:33;15.87;;;4.90;;
26718;SDS011;14326;50.794;6.060;2023-04-24T13:35:00;17.98;;;5.43;;
26718;SDS011;14326;50.794;6.060;2023-04-24T13:37:27;18.30;;;5.43;;
26718;SDS011;14326;50.794;6.060;2023-04-24T13:39:54;18.15;;;5.47;;
26718;SDS011;14326;50.794;6.060;2023-04-24T13:42:20;17.48;;;4.95;;
26718;SDS011;14326;50.794;6.060;2023-04-24T13:44:47;18.27;;;5.18;;
26718;SDS011;14326;50.794;6.060;2023-04-24T13:47:15;25.00;;;5.75;;
26718;SDS011;14326;50.794;6.060;2023-04-24T13:49:41;18.85;;;5.32;;
26718;SDS011;14326;50.794;6.060;2023-04-24T13:52:08;19.00;;;5.35;;
26718;SDS011;14326;50.794;6.060;2023-04-24T13:54:35;16.90;;;5.38;;
26718;SDS011;14326;50.794;6.060;2023-04-24T13:57:02;15.50;;;5.05;;
26718;SDS011;14326;50.794;6.060;2023-04-24T13:59:29;15.98;;;5.22;;
26718;SDS011;14326;50.794;6.060;2023-04-24T14:02:25;17.15;;;5.53;;
26718;SDS011;14326;50.794;6.060;2023-04-24T14:04:51;18.88;;;5.35;;
26718;SDS011;14326;50.794;6.060;2023-04-24T14:07:18;15.93;;;5.82;;
26718;SDS011;14326;50.794;6.060;2023-04-24T14:09:51;18.02;;;6.10;;
26718;SDS011;14326;50.794;6.060;2023-04-24T14:12:18;16.52;;;5.03;;
26718;SDS011;14326;50.794;6.060;2023-04-24T14:17:40;16.88;;;4.82;;
26718;SDS011;14326;50.794;6.060;2023-04-24T14:20:11;15.27;;;4.80;;
26718;SDS011;14326;50.794;6.060;2023-04-24T14:22:40;14.82;;;4.40;;
26718;SDS011;14326;50.794;6.060;2023-04-24T14:25:09;17.00;;;4.97;;
26718;SDS011;14326;50.794;6.060;2023-04-24T14:27:41;15.38;;;4.63;;
26718;SDS011;14326;50.794;6.060;2023-04-24T14:30:12;15.88;;;4.63;;
26718;SDS011;14326;50.794;6.060;2023-04-24T14:32:41;14.50;;;4.53;;
26718;SDS011;14326;50.794;6.060;2023-04-24T14:35:08;14.73;;;4.10;;
26718;SDS011;14326;50.794;6.060;2023-04-24T14:37:42;18.25;;;5.45;;
26718;SDS011;14326;50.794;6.060;2023-04-24T14:40:24;14.52;;;4.47;;
26718;SDS011;14326;50.794;6.060;2023-04-24T14:42:57;15.73;;;5.22;;
26718;SDS011;14326;50.794;6.060;2023-04-24T14:45:24;17.38;;;4.93;;
26718;SDS011;14326;50.794;6.060;2023-04-24T14:47:53;17.23;;;4.40;;
26718;SDS011;14326;50.794;6.060;2023-04-24T14:50:20;15.00;;;5.10;;
26718;SDS011;14326;50.794;6.060;2023-04-24T14:52:52;16.75;;;5.00;;
26718;SDS011;14326;50.794;6.060;2023-04-24T14:55:19;18.15;;;5.15;;
26718;SDS011;14326;50.794;6.060;2023-04-24T14:57:46;16.75;;;4.90;;
26718;SDS011;14326;50.794;6.060;2023-04-24T15:00:13;14.95;;;4.85;;
26718;SDS011;14326;50.794;6.060;2023-04-24T15:02:41;14.77;;;4.90;;
26718;SDS011;14326;50.794;6.060;2023-04-24T15:05:10;16.95;;;5.13;;
26718;SDS011;14326;50.794;6.060;2023-04-24T15:07:37;14.10;;;4.43;;
26718;SDS011;14326;50.794;6.060;2023-04-24T15:10:09;15.98;;;4.50;;
26718;SDS011;14326;50.794;6.060;2023-04-24T15:12:48;15.52;;;4.55;;
26718;SDS011;14326;50.794;6.060;2023-04-24T15:15:21;15.75;;;4.65;;
26718;SDS011;14326;50.794;6.060;2023-04-24T15:17:47;13.02;;;4.55;;
26718;SDS011;14326;50.794;6.060;2023-04-24T15:20:19;14.77;;;4.70;;
26718;SDS011;14326;50.794;6.060;2023-04-24T15:23:00;16.75;;;4.50;;
26718;SDS011;14326;50.794;6.060;2023-04-24T15:25:30;16.70;;;4.65;;
26718;SDS011;14326;50.794;6.060;2023-04-24T15:27:57;14.00;;;4.55;;
26718;SDS011;14326;50.794;6.060;2023-04-24T15:30:27;16.65;;;4.88;;
26718;SDS011;14326;50.794;6.060;2023-04-24T15:32:54;13.88;;;4.22;;
26718;SDS011;14326;50.794;6.060;2023-04-24T15:35:21;15.98;;;4.70;;
26718;SDS011;14326;50.794;6.060;2023-04-24T15:37:48;14.48;;;4.40;;
26718;SDS011;14326;50.794;6.060;2023-04-24T15:40:20;17.42;;;4.57;;
26718;SDS011;14326;50.794;6.060;2023-04-24T15:45:49;12.80;;;4.25;;
26718;SDS011;14326;50.794;6.060;2023-04-24T15:48:16;11.80;;;4.28;;
26718;SDS011;14326;50.794;6.060;2023-04-24T15:50:53;14.07;;;4.20;;
26718;SDS011;14326;50.794;6.060;2023-04-24T15:53:27;14.93;;;4.50;;
26718;SDS011;14326;50.794;6.060;2023-04-24T15:56:23;16.45;;;4.63;;
26718;SDS011;14326;50.794;6.060;2023-04-24T15:58:49;11.68;;;4.18;;
26718;SDS011;14326;50.794;6.060;2023-04-24T16:01:16;15.07;;;4.25;;
26718;SDS011;14326;50.794;6.060;2023-04-24T16:03:43;16.95;;;4.68;;
26718;SDS011;14326;50.794;6.060;2023-04-24T16:06:12;18.70;;;4.78;;
26718;SDS011;14326;50.794;6.060;2023-04-24T16:08:38;15.40;;;5.07;;
26718;SDS011;14326;50.794;6.060;2023-04-24T16:11:05;15.80;;;4.40;;
26718;SDS011;14326;50.794;6.060;2023-04-24T16:13:37;14.70;;;4.55;;
26718;SDS011;14326;50.794;6.060;2023-04-24T16:16:18;17.98;;;4.60;;
26718;SDS011;14326;50.794;6.060;2023-04-24T16:18:45;17.05;;;5.00;;
26718;SDS011;14326;50.794;6.060;2023-04-24T16:21:15;15.00;;;4.40;;
26718;SDS011;14326;50.794;6.060;2023-04-24T16:23:41;16.23;;;4.90;;
26718;SDS011;14326;50.794;6.060;2023-04-24T16:26:08;14.05;;;3.97;;
26718;SDS011;14326;50.794;6.060;2023-04-24T16:28:34;15.85;;;4.57;;
26718;SDS011;14326;50.794;6.060;2023-04-24T16:31:01;16.95;;;4.70;;
26718;SDS011;14326;50.794;6.060;2023-04-24T16:33:28;16.33;;;4.78;;